• Join FlightAware (Why Join?)
  • Login
  • US Flag 
06:50PM EDT


 

Airport Tracker/Info


-or-


 

Live Flight TrackerFlight Track Log ✈ PDT4207 ✈ 02-Nov-2013 ✈ KPHL - KBGM

Flight Track Log - Related Links

Times and Time Zones

All times are in EDT time to prevent confusion due to time zone crossing. See the PDT4207 flight status page for this flight to view local times or setup timezone preferences in your user account.

Time Position Orientation Groundspeed Altitude Reporting Facility
EDT Latitude Longitude Course Direction KTS MPH feet Rate Location/Type
09:36PM 39.9000 -75.2333 351° North 116 133 700  Level Philadelphia TRACON
09:37PM 39.9500 -75.2500 346° North 164 189 2,400 1,260 Climbing Philadelphia TRACON
09:38PM 39.9833 -75.2500 360° North 168 193 3,600 840 Climbing Philadelphia TRACON
09:39PM 40.0723 -75.3020 349° North  Level Estimated
09:39PM 40.0333 -75.2667 346° North 180 207 4,000  Level Philadelphia TRACON
09:40PM 40.1399 -75.3165 351° North  Level FlightAware Approximate
09:40PM 40.1000 -75.2833 349° North 225 259 4,000  Level Philadelphia TRACON
09:41PM 40.2074 -75.3310 351° North  Level FlightAware Approximate
09:41PM 40.1500 -75.3000 346° North 226 260 4,000  Level Philadelphia TRACON
09:43PM 40.2293 -75.3220 348° North  Level FlightAware Approximate
09:50PM 40.6993 -75.4456 349° North  Level FlightAware Approximate
09:51PM 40.7675 -75.4500 North  Level FlightAware Approximate
09:52PM 40.8360 -75.4500 North  Level FlightAware Approximate
09:53PM 40.9045 -75.4500 North  Level FlightAware Approximate
09:54PM 40.9730 -75.4500 North  Level FlightAware Approximate
09:55PM 41.0414 -75.4506 357° North  Level FlightAware Approximate
09:56PM 41.1098 -75.4559 357° North  Level FlightAware Approximate
09:57PM 41.1782 -75.4611 357° North  Level FlightAware Approximate
09:58PM 41.2466 -75.4664 357° North  Level FlightAware Approximate
09:59PM 41.3150 -75.4667 North  Level FlightAware Approximate
10:00PM 41.3835 -75.4667 North  Level FlightAware Approximate
10:01PM 41.4520 -75.4667 North  Level FlightAware Approximate
10:02PM 41.5098 -75.5096 323° Northwest  Level FlightAware Approximate
10:03PM 41.5647 -75.5644 323° Northwest  Level FlightAware Approximate
10:04PM 41.6195 -75.6192 323° Northwest  Level FlightAware Approximate
10:05PM 41.6743 -75.6742 323° Northwest  Level FlightAware Approximate
10:06PM 41.7295 -75.7285 326° Northwest  Level FlightAware Approximate
10:07PM 41.7859 -75.7804 326° Northwest  Level FlightAware Approximate
10:08PM 41.8424 -75.8325 326° Northwest  Level FlightAware Approximate
10:09PM 41.8988 -75.8847 325° Northwest  Level FlightAware Approximate
10:10PM 41.9546 -75.9380 323° Northwest  Level FlightAware Approximate
10:11PM 42.0096 -75.9929 323° Northwest  Level FlightAware Approximate
10:12PM 42.0646 -76.0478 323° Northwest  Level FlightAware Approximate
10:13PM 42.1196 -76.1029 323° Northwest  Level FlightAware Approximate
10:14PM 42.1547 -76.0953 37° Northeast  Level FlightAware Approximate
10:15PM 42.1921 -76.0197 62° Northeast  Level FlightAware Approximate
10:16PM 42.2000 -75.9667 90° East  Level FlightAware Approximate
10:17PM 42.2084 -75.9796 90° East  Level Estimated
10:18PM 42.2084 -75.9796 90° East  Level Estimated
10:19PM 42.2084 -75.9796 90° East  Level Estimated